ADDS METAR Data INFO
IDs: Format: Raw Decoded Include TAF

Data at: 1230 UTC 20 Jul 2017

METAR for:KJCT (Junction/Kimble Cnty, TX, US)
Text:KJCT 201151Z AUTO 00000KT 10SM CLR 24/22 A3016 RMK AO2 SLP174 T02440217 10283 20244 53009 TSNO
Temperature: 24.4°C ( 76°F)
Dewpoint: 21.7°C ( 71°F) [RH = 85%]
Pressure (altimeter):30.16 inches Hg (1021.4 mb) [Sea level pressure: 1017.4 mb]
Winds:calm
Visibility:10 or more sm (16+ km)
Ceiling:at least 12,000 feet AGL
Clouds:sky clear below 12,000 feet AGL
QC Flag:automated observation with no human augmentation